Time;durP1;ratioP1;P1;durP2;ratioP2;P2;SDS_P1;SDS_P2;PMS_P1;PMS_P2;Temp;Humidity;BMP_temperature;BMP_pressure;BME280_temperature;BME280_humidity;BME280_pressure;Samples;Min_cycle;Max_cycle;Signal;HPM_P1;HPM_P2
2022/01/13 00:00:59;;;;;;;23.48;13.20;;;;;;;;;;4992570;28;20042;-68
2022/01/13 00:03:25;;;;;;;24.85;13.13;;;;;;;;;;4991617;28;20026;-69
2022/01/13 00:05:51;;;;;;;26.25;13.18;;;;;;;;;;4993387;28;20037;-69
2022/01/13 00:08:18;;;;;;;21.00;12.82;;;;;;;;;;4991981;28;20040;-68
2022/01/13 00:10:44;;;;;;;17.98;12.02;;;;;;;;;;4997606;28;20405;-68
2022/01/13 00:13:13;;;;;;;17.13;10.77;;;;;;;;;;4996667;28;20037;-68
2022/01/13 00:21:15;;;;;;;19.45;11.18;;;;;;;;;;4966190;28;20081;-69
2022/01/13 00:23:44;;;;;;;19.85;10.25;;;;;;;;;;4989883;28;20031;-69
2022/01/13 00:26:32;;;;;;;14.95;8.75;;;;;;;;;;4989050;28;20049;-69
2022/01/13 00:29:01;;;;;;;21.45;8.20;;;;;;;;;;4997528;28;20073;-69
2022/01/13 00:31:31;;;;;;;14.32;8.63;;;;;;;;;;4992042;28;20034;-69
2022/01/13 00:33:59;;;;;;;12.10;6.70;;;;;;;;;;4992694;28;20025;-68
2022/01/13 00:36:26;;;;;;;14.60;8.13;;;;;;;;;;4993742;28;20398;-69
2022/01/13 00:38:52;;;;;;;13.68;8.95;;;;;;;;;;4988896;28;20023;-68
2022/01/13 00:41:19;;;;;;;11.75;7.38;;;;;;;;;;4991447;28;20050;-68
2022/01/13 00:43:47;;;;;;;10.50;7.53;;;;;;;;;;4990602;28;20023;-68
2022/01/13 00:46:20;;;;;;;16.08;7.70;;;;;;;;;;4992614;28;20043;-69
2022/01/13 00:48:47;;;;;;;10.07;6.78;;;;;;;;;;4992111;28;20056;-68
2022/01/13 00:51:13;;;;;;;13.93;6.07;;;;;;;;;;4992492;28;20038;-70
2022/01/13 00:53:39;;;;;;;12.23;6.18;;;;;;;;;;4990470;28;20045;-69
2022/01/13 00:56:05;;;;;;;14.70;6.38;;;;;;;;;;4988323;28;20089;-74
2022/01/13 00:58:32;;;;;;;14.18;7.10;;;;;;;;;;4984738;28;20479;-69
2022/01/13 01:01:00;;;;;;;11.80;5.80;;;;;;;;;;4996144;28;20046;-69
2022/01/13 01:03:26;;;;;;;8.93;5.80;;;;;;;;;;4992741;28;20429;-72
2022/01/13 01:05:52;;;;;;;13.50;5.32;;;;;;;;;;4992737;28;20041;-75
2022/01/13 01:08:19;;;;;;;12.02;5.50;;;;;;;;;;4995132;28;20539;-77
2022/01/13 01:10:47;;;;;;;9.95;4.88;;;;;;;;;;4998049;28;20065;-70
2022/01/13 01:13:17;;;;;;;11.27;5.38;;;;;;;;;;4995370;28;20048;-69
2022/01/13 01:15:48;;;;;;;11.55;5.18;;;;;;;;;;4997787;28;20041;-69
2022/01/13 01:18:41;;;;;;;8.85;5.18;;;;;;;;;;4995842;28;20033;-68
2022/01/13 01:31:37;;;;;;;8.95;4.75;;;;;;;;;;4995902;28;20096;-75
2022/01/13 01:36:31;;;;;;;8.40;4.53;;;;;;;;;;4998445;28;20037;-69
2022/01/13 01:38:59;;;;;;;9.15;4.63;;;;;;;;;;4994307;28;20022;-69
2022/01/13 01:41:25;;;;;;;6.45;4.25;;;;;;;;;;4992973;28;20070;-69
2022/01/13 01:43:54;;;;;;;9.43;4.50;;;;;;;;;;4988129;28;20049;-69
2022/01/13 01:46:20;;;;;;;7.57;4.28;;;;;;;;;;4995678;28;20054;-69
2022/01/13 01:48:46;;;;;;;11.18;4.90;;;;;;;;;;4998609;28;20038;-69
2022/01/13 01:51:12;;;;;;;6.40;4.45;;;;;;;;;;4999159;28;20030;-69
2022/01/13 01:53:39;;;;;;;8.13;4.40;;;;;;;;;;4994546;28;20036;-69
2022/01/13 01:56:05;;;;;;;8.90;4.70;;;;;;;;;;4995013;28;20034;-69
2022/01/13 01:58:34;;;;;;;8.60;5.03;;;;;;;;;;4998591;28;20080;-69
2022/01/13 02:01:00;;;;;;;11.48;4.72;;;;;;;;;;5002978;28;20037;-68
2022/01/13 02:03:28;;;;;;;7.88;4.45;;;;;;;;;;4998356;28;20022;-69
2022/01/13 02:05:54;;;;;;;11.63;5.05;;;;;;;;;;5000611;28;20018;-69
2022/01/13 02:08:20;;;;;;;12.75;5.53;;;;;;;;;;4999345;28;20046;-68
2022/01/13 02:10:46;;;;;;;9.70;5.47;;;;;;;;;;4998868;28;20511;-69
2022/01/13 02:13:19;;;;;;;10.85;4.93;;;;;;;;;;4998637;28;20577;-69
2022/01/13 02:16:00;;;;;;;10.82;5.07;;;;;;;;;;5000663;28;20025;-69
2022/01/13 02:18:29;;;;;;;10.85;5.53;;;;;;;;;;5001470;28;20116;-69
2022/01/13 02:20:55;;;;;;;12.73;5.38;;;;;;;;;;4996019;28;20381;-69
2022/01/13 02:23:32;;;;;;;10.75;6.13;;;;;;;;;;4998884;28;20053;-68
2022/01/13 02:25:58;;;;;;;12.90;6.15;;;;;;;;;;4995050;28;20036;-69
2022/01/13 02:28:25;;;;;;;13.57;5.78;;;;;;;;;;4994905;28;20609;-69
2022/01/13 02:30:51;;;;;;;11.77;5.90;;;;;;;;;;4997023;28;20069;-69
2022/01/13 02:33:17;;;;;;;8.98;5.30;;;;;;;;;;5000364;28;20048;-68
2022/01/13 02:35:43;;;;;;;14.73;5.68;;;;;;;;;;4993942;28;20053;-69
2022/01/13 02:38:10;;;;;;;13.10;5.22;;;;;;;;;;4998974;28;20025;-68
2022/01/13 02:40:36;;;;;;;11.52;5.47;;;;;;;;;;4994352;28;20037;-68
2022/01/13 02:43:03;;;;;;;15.85;5.75;;;;;;;;;;4986956;28;20418;-68
2022/01/13 02:45:35;;;;;;;13.23;5.32;;;;;;;;;;4986003;28;20037;-68
2022/01/13 02:50:46;;;;;;;12.40;4.78;;;;;;;;;;4986576;28;20037;-68
2022/01/13 02:53:12;;;;;;;6.82;4.57;;;;;;;;;;4999136;28;20041;-68
2022/01/13 02:55:39;;;;;;;10.85;4.82;;;;;;;;;;4989755;28;20031;-67
2022/01/13 02:58:05;;;;;;;9.30;4.25;;;;;;;;;;4995978;28;20034;-69
2022/01/13 03:00:31;;;;;;;14.15;5.38;;;;;;;;;;4986000;28;20068;-68
2022/01/13 03:02:57;;;;;;;14.85;6.05;;;;;;;;;;4984822;28;20570;-69
2022/01/13 03:05:23;;;;;;;13.18;5.28;;;;;;;;;;4985935;28;20030;-68
2022/01/13 03:07:52;;;;;;;11.73;5.97;;;;;;;;;;4985484;28;20026;-68
2022/01/13 03:10:18;;;;;;;9.35;5.32;;;;;;;;;;4985217;28;20022;-68
2022/01/13 03:12:45;;;;;;;9.38;5.20;;;;;;;;;;4984140;28;20106;-68
2022/01/13 03:15:12;;;;;;;8.70;5.63;;;;;;;;;;4985033;28;20818;-68
2022/01/13 03:17:38;;;;;;;8.35;5.40;;;;;;;;;;4985671;28;20037;-69
2022/01/13 03:20:05;;;;;;;10.70;5.40;;;;;;;;;;4986162;28;20030;-69
2022/01/13 03:22:31;;;;;;;10.32;6.10;;;;;;;;;;4985113;28;20041;-68
2022/01/13 03:24:57;;;;;;;12.13;5.45;;;;;;;;;;4984993;28;20065;-68
2022/01/13 03:27:33;;;;;;;8.45;5.28;;;;;;;;;;4983564;28;20096;-68
2022/01/13 03:30:01;;;;;;;11.65;5.50;;;;;;;;;;5000119;28;20076;-69
2022/01/13 03:32:27;;;;;;;10.57;5.50;;;;;;;;;;4994448;28;20614;-68
2022/01/13 03:34:53;;;;;;;10.63;5.78;;;;;;;;;;4983963;28;20493;-68
2022/01/13 03:37:19;;;;;;;9.32;5.55;;;;;;;;;;4985248;28;20038;-68
2022/01/13 03:39:45;;;;;;;8.95;5.30;;;;;;;;;;4983679;28;20471;-68
2022/01/13 03:42:11;;;;;;;11.25;5.80;;;;;;;;;;4988919;28;20532;-69
2022/01/13 03:44:38;;;;;;;6.90;4.70;;;;;;;;;;5003141;28;20026;-69
2022/01/13 03:47:04;;;;;;;13.73;5.22;;;;;;;;;;5004591;28;20058;-68
2022/01/13 03:49:32;;;;;;;9.82;5.63;;;;;;;;;;5004294;28;20022;-68
2022/01/13 03:52:02;;;;;;;12.75;5.20;;;;;;;;;;5004663;28;20430;-68
2022/01/13 03:54:32;;;;;;;10.55;5.45;;;;;;;;;;5003978;28;20030;-69
2022/01/13 03:57:17;;;;;;;11.60;5.80;;;;;;;;;;5002868;28;20482;-70
2022/01/13 04:00:02;;;;;;;8.85;5.20;;;;;;;;;;4988291;28;20038;-69
2022/01/13 04:02:28;;;;;;;10.60;5.82;;;;;;;;;;4983910;28;20487;-68
2022/01/13 04:04:54;;;;;;;13.63;5.15;;;;;;;;;;4982429;28;20026;-67
2022/01/13 04:07:21;;;;;;;12.73;5.25;;;;;;;;;;4980980;28;20029;-68
2022/01/13 04:09:47;;;;;;;8.27;4.50;;;;;;;;;;4982309;28;20041;-68
2022/01/13 04:12:14;;;;;;;9.10;4.50;;;;;;;;;;4982396;28;20037;-68
2022/01/13 04:17:08;;;;;;;11.10;4.78;;;;;;;;;;4982170;28;20034;-69
2022/01/13 04:19:34;;;;;;;17.45;4.97;;;;;;;;;;4980632;28;20648;-69
2022/01/13 04:22:00;;;;;;;10.68;5.53;;;;;;;;;;4981841;28;20042;-69
2022/01/13 04:24:26;;;;;;;7.70;5.22;;;;;;;;;;4981988;28;20125;-68
2022/01/13 04:26:55;;;;;;;7.90;4.57;;;;;;;;;;4981946;28;20030;-70
2022/01/13 04:29:30;;;;;;;11.93;5.10;;;;;;;;;;4982100;28;20483;-69
2022/01/13 04:31:56;;;;;;;12.60;6.25;;;;;;;;;;4983921;28;20386;-68
2022/01/13 04:34:22;;;;;;;16.83;6.82;;;;;;;;;;4999723;28;20029;-68
2022/01/13 04:36:48;;;;;;;14.95;5.72;;;;;;;;;;5001618;28;20026;-68
2022/01/13 04:39:15;;;;;;;17.42;6.38;;;;;;;;;;5001151;28;20651;-68
2022/01/13 04:41:44;;;;;;;12.60;5.95;;;;;;;;;;4988448;28;20046;-68
2022/01/13 04:44:14;;;;;;;17.50;6.15;;;;;;;;;;4982633;28;20118;-68
2022/01/13 04:46:40;;;;;;;13.23;6.03;;;;;;;;;;4983787;28;20669;-68
2022/01/13 04:49:07;;;;;;;8.70;5.68;;;;;;;;;;4984644;28;20526;-68
2022/01/13 04:51:34;;;;;;;11.40;4.85;;;;;;;;;;4983826;28;20022;-68
2022/01/13 04:54:01;;;;;;;9.13;5.22;;;;;;;;;;4982382;28;20089;-68
2022/01/13 04:56:52;;;;;;;12.02;6.55;;;;;;;;;;4983188;28;20038;-68
2022/01/13 04:59:19;;;;;;;16.42;5.47;;;;;;;;;;4983738;28;20451;-68
2022/01/13 05:01:45;;;;;;;13.45;5.78;;;;;;;;;;4983621;28;20046;-68
2022/01/13 05:04:11;;;;;;;10.35;5.90;;;;;;;;;;4981746;28;20084;-69
2022/01/13 05:06:38;;;;;;;11.35;5.15;;;;;;;;;;5000429;28;20036;-68
2022/01/13 05:09:04;;;;;;;10.40;5.47;;;;;;;;;;5003219;28;20041;-68
2022/01/13 05:11:31;;;;;;;10.00;5.28;;;;;;;;;;5001673;28;20033;-68
2022/01/13 05:13:57;;;;;;;10.15;5.22;;;;;;;;;;5001685;28;20147;-68
2022/01/13 05:16:37;;;;;;;10.25;5.32;;;;;;;;;;5002660;28;20026;-68
2022/01/13 05:24:14;;;;;;;10.35;5.90;;;;;;;;;;4994607;28;20423;-68
2022/01/13 05:26:41;;;;;;;9.02;5.30;;;;;;;;;;4990150;28;20034;-68
2022/01/13 05:29:07;;;;;;;9.18;5.40;;;;;;;;;;4980656;28;20026;-68
2022/01/13 05:31:33;;;;;;;10.48;4.90;;;;;;;;;;4995259;28;20060;-69
2022/01/13 05:33:59;;;;;;;7.70;5.28;;;;;;;;;;4981182;28;20031;-68
2022/01/13 05:36:25;;;;;;;7.60;4.80;;;;;;;;;;4980508;28;20069;-68
2022/01/13 05:38:52;;;;;;;8.57;5.10;;;;;;;;;;4978199;28;20077;-68
2022/01/13 05:41:18;;;;;;;10.05;4.97;;;;;;;;;;4980461;28;20053;-68
2022/01/13 05:43:44;;;;;;;8.88;5.57;;;;;;;;;;4997222;28;20052;-68
2022/01/13 05:46:10;;;;;;;7.90;4.80;;;;;;;;;;5000207;28;20146;-68
2022/01/13 05:48:36;;;;;;;7.95;5.03;;;;;;;;;;4998208;28;20026;-68
2022/01/13 05:51:02;;;;;;;7.60;4.78;;;;;;;;;;4999215;28;20041;-68
2022/01/13 05:53:28;;;;;;;5.60;4.63;;;;;;;;;;5000180;28;20072;-68
2022/01/13 05:55:54;;;;;;;9.45;4.78;;;;;;;;;;4989670;28;20050;-68
2022/01/13 05:58:21;;;;;;;8.25;5.05;;;;;;;;;;4979601;28;20452;-68
2022/01/13 06:00:47;;;;;;;10.65;5.90;;;;;;;;;;4980155;28;20038;-68
2022/01/13 06:03:13;;;;;;;13.00;5.53;;;;;;;;;;4980244;28;20034;-68
2022/01/13 06:05:39;;;;;;;12.77;5.45;;;;;;;;;;4980798;28;20034;-68
2022/01/13 06:08:05;;;;;;;9.98;4.85;;;;;;;;;;4980653;28;20033;-69
2022/01/13 06:10:31;;;;;;;8.68;4.70;;;;;;;;;;4978730;28;20113;-68
2022/01/13 06:12:58;;;;;;;10.05;4.80;;;;;;;;;;4989678;28;20041;-68
2022/01/13 06:15:25;;;;;;;14.18;4.55;;;;;;;;;;4992589;28;20023;-68
2022/01/13 06:17:52;;;;;;;8.95;4.95;;;;;;;;;;4982839;28;20517;-69
2022/01/13 06:20:19;;;;;;;7.57;4.75;;;;;;;;;;4981147;28;20031;-69
2022/01/13 06:22:46;;;;;;;10.63;4.60;;;;;;;;;;4982507;28;20121;-70
2022/01/13 06:25:13;;;;;;;7.78;4.57;;;;;;;;;;4981870;28;20026;-69
2022/01/13 06:27:39;;;;;;;13.02;4.72;;;;;;;;;;4982291;28;20045;-70
2022/01/13 06:30:07;;;;;;;12.27;4.95;;;;;;;;;;4982755;28;20026;-69
2022/01/13 06:32:33;;;;;;;10.68;4.93;;;;;;;;;;4981515;28;20037;-69
2022/01/13 06:34:59;;;;;;;9.15;4.82;;;;;;;;;;4981942;28;20117;-69
2022/01/13 06:37:25;;;;;;;9.95;5.30;;;;;;;;;;4989874;28;20030;-70
2022/01/13 06:39:51;;;;;;;8.88;5.28;;;;;;;;;;4985653;28;20027;-69
2022/01/13 06:42:17;;;;;;;10.85;5.65;;;;;;;;;;4983077;28;20042;-74
2022/01/13 06:44:44;;;;;;;11.88;6.13;;;;;;;;;;5002724;28;20061;-69
2022/01/13 06:47:10;;;;;;;9.48;4.75;;;;;;;;;;4996877;28;20594;-77
2022/01/13 06:49:36;;;;;;;11.82;5.45;;;;;;;;;;4985512;28;20478;-69
2022/01/13 06:52:02;;;;;;;10.27;5.03;;;;;;;;;;5001976;28;20029;-70
2022/01/13 06:54:28;;;;;;;12.93;5.25;;;;;;;;;;5004940;28;20500;-70
2022/01/13 06:56:55;;;;;;;9.45;4.90;;;;;;;;;;5003445;28;20336;-70
2022/01/13 06:59:21;;;;;;;9.95;4.80;;;;;;;;;;5005273;28;20042;-70
2022/01/13 07:01:48;;;;;;;9.15;4.90;;;;;;;;;;5005268;28;20038;-69
2022/01/13 07:04:15;;;;;;;9.48;4.38;;;;;;;;;;5005262;28;20104;-69
2022/01/13 07:06:42;;;;;;;15.75;5.53;;;;;;;;;;5003620;28;20025;-70
2022/01/13 07:09:17;;;;;;;8.98;4.80;;;;;;;;;;5004311;28;20487;-70
2022/01/13 07:11:45;;;;;;;8.27;4.63;;;;;;;;;;5004025;28;20533;-70
2022/01/13 07:14:11;;;;;;;8.93;5.25;;;;;;;;;;5005012;28;20064;-70
2022/01/13 07:16:38;;;;;;;12.93;5.05;;;;;;;;;;5003532;28;20036;-72
2022/01/13 07:19:04;;;;;;;12.57;7.03;;;;;;;;;;5004598;28;20079;-72
2022/01/13 07:21:31;;;;;;;11.80;5.43;;;;;;;;;;5004199;28;20030;-71
2022/01/13 07:23:57;;;;;;;10.20;4.32;;;;;;;;;;5004511;28;20553;-71
2022/01/13 07:26:23;;;;;;;14.20;4.65;;;;;;;;;;4993916;28;20544;-71
2022/01/13 07:28:49;;;;;;;15.10;6.25;;;;;;;;;;4983067;28;20023;-70
2022/01/13 07:31:16;;;;;;;10.02;5.10;;;;;;;;;;4984213;28;20605;-71
2022/01/13 07:33:42;;;;;;;30.00;14.45;;;;;;;;;;4984738;28;20038;-71
2022/01/13 07:36:09;;;;;;;12.07;5.20;;;;;;;;;;4984994;28;20058;-70
2022/01/13 07:38:35;;;;;;;9.52;5.00;;;;;;;;;;4984345;28;20073;-71
2022/01/13 07:41:01;;;;;;;10.40;5.05;;;;;;;;;;4983128;28;20376;-76
2022/01/13 07:43:27;;;;;;;9.45;4.78;;;;;;;;;;5003739;28;20068;-72
2022/01/13 07:45:54;;;;;;;17.67;8.60;;;;;;;;;;5003760;28;20022;-71
2022/01/13 07:48:20;;;;;;;8.82;5.22;;;;;;;;;;4995400;28;20513;-72
2022/01/13 07:50:47;;;;;;;11.77;5.05;;;;;;;;;;4984820;28;20019;-70
2022/01/13 07:53:13;;;;;;;12.90;5.38;;;;;;;;;;4984365;28;20026;-70
2022/01/13 07:55:39;;;;;;;12.02;5.68;;;;;;;;;;4984479;28;20023;-70
2022/01/13 07:58:05;;;;;;;21.15;7.22;;;;;;;;;;4982624;28;20033;-70
2022/01/13 08:00:31;;;;;;;12.73;6.68;;;;;;;;;;4985787;28;20026;-70
2022/01/13 08:02:58;;;;;;;13.88;6.43;;;;;;;;;;5003848;28;20034;-70
2022/01/13 08:05:24;;;;;;;9.65;4.72;;;;;;;;;;5002204;28;20042;-70
2022/01/13 08:07:50;;;;;;;8.05;5.38;;;;;;;;;;5003359;28;20478;-70
2022/01/13 08:10:16;;;;;;;8.68;4.85;;;;;;;;;;5003789;28;20607;-70
2022/01/13 08:12:42;;;;;;;12.32;4.80;;;;;;;;;;4988049;28;20537;-71
2022/01/13 08:15:13;;;;;;;9.55;4.60;;;;;;;;;;4980255;28;20030;-70
2022/01/13 08:20:24;;;;;;;14.07;4.55;;;;;;;;;;5002827;28;20709;-71
2022/01/13 08:22:51;;;;;;;9.43;4.47;;;;;;;;;;5000151;28;20026;-70
2022/01/13 08:25:17;;;;;;;15.45;4.75;;;;;;;;;;4992607;28;20025;-71
2022/01/13 08:27:44;;;;;;;9.27;4.55;;;;;;;;;;4990316;28;20038;-72
2022/01/13 08:30:10;;;;;;;16.02;5.43;;;;;;;;;;4990434;28;20028;-71
2022/01/13 08:32:36;;;;;;;11.68;4.40;;;;;;;;;;5003522;28;20029;-71
2022/01/13 08:35:03;;;;;;;14.52;4.80;;;;;;;;;;5001478;28;20113;-76
2022/01/13 08:37:30;;;;;;;11.57;4.53;;;;;;;;;;5003279;28;20030;-70
2022/01/13 08:39:58;;;;;;;11.00;4.90;;;;;;;;;;5001474;28;20025;-70
2022/01/13 08:42:24;;;;;;;12.32;4.40;;;;;;;;;;5003642;28;20032;-73
2022/01/13 08:44:51;;;;;;;9.43;4.25;;;;;;;;;;5002238;28;20030;-72
2022/01/13 08:47:17;;;;;;;10.77;4.57;;;;;;;;;;5002346;28;20057;-72
2022/01/13 08:49:43;;;;;;;9.60;4.00;;;;;;;;;;5003522;28;20680;-70
2022/01/13 08:52:09;;;;;;;9.00;3.97;;;;;;;;;;5003210;28;20045;-69
2022/01/13 08:54:35;;;;;;;9.73;4.50;;;;;;;;;;4999409;28;20023;-70
2022/01/13 08:57:02;;;;;;;10.93;4.47;;;;;;;;;;4985073;28;20030;-71
2022/01/13 08:59:28;;;;;;;12.70;4.65;;;;;;;;;;4983683;28;20847;-68
2022/01/13 09:01:55;;;;;;;10.30;4.18;;;;;;;;;;4983472;28;20805;-68
2022/01/13 09:04:21;;;;;;;10.65;4.60;;;;;;;;;;4983351;28;20511;-69
2022/01/13 09:06:47;;;;;;;10.07;4.93;;;;;;;;;;4982829;28;20042;-70
2022/01/13 09:09:14;;;;;;;12.77;4.40;;;;;;;;;;4981878;28;20023;-70
2022/01/13 09:11:41;;;;;;;9.38;4.57;;;;;;;;;;4983584;28;20026;-70
2022/01/13 09:14:07;;;;;;;7.25;4.10;;;;;;;;;;4983625;28;20034;-69
2022/01/13 09:16:41;;;;;;;8.55;4.15;;;;;;;;;;4983414;28;20030;-69
2022/01/13 09:19:09;;;;;;;13.43;4.90;;;;;;;;;;4982319;28;20030;-69
2022/01/13 09:21:37;;;;;;;9.82;4.53;;;;;;;;;;4983258;28;20066;-68
2022/01/13 09:24:03;;;;;;;9.40;3.95;;;;;;;;;;4983510;28;20037;-68
2022/01/13 09:26:29;;;;;;;9.30;4.93;;;;;;;;;;4982597;28;20049;-70
2022/01/13 09:28:55;;;;;;;10.00;5.22;;;;;;;;;;4982298;28;20022;-71
2022/01/13 09:31:22;;;;;;;13.88;4.50;;;;;;;;;;4981731;28;20033;-71
2022/01/13 09:33:48;;;;;;;14.23;4.57;;;;;;;;;;4983462;28;20045;-70
2022/01/13 09:36:15;;;;;;;11.52;5.65;;;;;;;;;;4997919;28;20721;-74
2022/01/13 09:38:41;;;;;;;10.27;4.43;;;;;;;;;;5002738;28;20034;-74
2022/01/13 09:41:07;;;;;;;13.63;6.00;;;;;;;;;;5002528;28;20040;-70
2022/01/13 09:43:33;;;;;;;15.50;4.95;;;;;;;;;;5000926;28;20037;-74
2022/01/13 09:46:00;;;;;;;10.75;5.18;;;;;;;;;;5002155;28;20433;-74
2022/01/13 09:48:27;;;;;;;11.63;4.88;;;;;;;;;;5002548;28;20034;-72
2022/01/13 09:50:54;;;;;;;9.93;5.18;;;;;;;;;;4998321;28;20550;-73
2022/01/13 09:53:20;;;;;;;16.00;5.55;;;;;;;;;;4983494;28;20031;-74
2022/01/13 09:55:48;;;;;;;10.02;4.93;;;;;;;;;;4980245;28;20026;-72
2022/01/13 09:58:14;;;;;;;10.70;5.05;;;;;;;;;;4982454;28;20130;-69
2022/01/13 10:00:41;;;;;;;16.52;5.68;;;;;;;;;;4982736;28;20080;-70
2022/01/13 10:03:17;;;;;;;12.40;4.63;;;;;;;;;;4985813;28;20038;-69
2022/01/13 10:05:48;;;;;;;13.98;5.28;;;;;;;;;;4996483;28;20042;-69
2022/01/13 10:08:14;;;;;;;13.10;4.78;;;;;;;;;;4997635;28;20060;-70
2022/01/13 10:10:41;;;;;;;12.70;5.00;;;;;;;;;;4980855;28;20030;-68
2022/01/13 10:13:14;;;;;;;10.13;4.90;;;;;;;;;;4982629;28;20109;-67
2022/01/13 10:18:43;;;;;;;9.07;5.00;;;;;;;;;;4949179;28;20038;-70
2022/01/13 10:21:12;;;;;;;10.48;5.05;;;;;;;;;;4986295;28;20084;-70
2022/01/13 10:23:38;;;;;;;10.10;4.95;;;;;;;;;;4985986;28;20032;-70
2022/01/13 10:26:09;;;;;;;11.18;4.80;;;;;;;;;;4986163;28;20028;-70
2022/01/13 10:28:35;;;;;;;11.57;5.72;;;;;;;;;;4984688;28;20027;-70
2022/01/13 10:31:01;;;;;;;13.55;6.57;;;;;;;;;;4985694;28;20410;-70
2022/01/13 10:33:29;;;;;;;9.57;4.78;;;;;;;;;;4986321;28;20030;-70
2022/01/13 10:36:06;;;;;;;12.90;5.13;;;;;;;;;;4992620;28;20021;-71
2022/01/13 10:38:51;;;;;;;12.05;5.45;;;;;;;;;;5005020;28;20018;-69
2022/01/13 10:42:00;;;;;;;9.10;4.90;;;;;;;;;;5003941;28;20644;-73
2022/01/13 10:44:24;;;;;;;8.15;4.93;;;;;;;;;;4985379;28;20498;-72
2022/01/13 10:47:01;;;;;;;9.57;5.32;;;;;;;;;;4985520;28;20391;-74
2022/01/13 10:49:40;;;;;;;8.63;5.18;;;;;;;;;;4983873;28;20150;-74
2022/01/13 10:52:26;;;;;;;28.50;5.82;;;;;;;;;;4985665;28;20428;-71
2022/01/13 10:55:07;;;;;;;8.27;4.88;;;;;;;;;;4990051;28;20034;-70
2022/01/13 10:57:33;;;;;;;10.98;5.10;;;;;;;;;;4991806;28;20344;-70
2022/01/13 11:00:00;;;;;;;11.43;5.40;;;;;;;;;;4986345;28;20033;-71
2022/01/13 11:02:26;;;;;;;7.38;4.70;;;;;;;;;;5004666;28;20034;-72
2022/01/13 11:04:52;;;;;;;9.88;4.68;;;;;;;;;;5003144;28;20026;-72
2022/01/13 11:07:21;;;;;;;6.75;4.60;;;;;;;;;;4993247;28;20402;-72
2022/01/13 11:09:58;;;;;;;10.30;5.13;;;;;;;;;;4991472;28;20018;-72
2022/01/13 11:12:32;;;;;;;10.70;5.18;;;;;;;;;;5002526;28;20034;-75
2022/01/13 11:15:03;;;;;;;11.25;5.10;;;;;;;;;;5002112;28;20030;-75
2022/01/13 11:17:30;;;;;;;13.80;5.30;;;;;;;;;;4990153;28;20076;-72
2022/01/13 11:19:57;;;;;;;7.18;4.05;;;;;;;;;;4984664;28;20268;-75
2022/01/13 11:22:24;;;;;;;6.72;4.18;;;;;;;;;;4996560;28;20040;-74
2022/01/13 11:24:50;;;;;;;8.73;5.55;;;;;;;;;;4992768;28;20033;-72
2022/01/13 11:27:18;;;;;;;16.40;6.57;;;;;;;;;;4995376;28;20029;-73
2022/01/13 11:29:45;;;;;;;14.02;5.68;;;;;;;;;;4985582;28;20018;-72
2022/01/13 11:32:13;;;;;;;19.30;5.72;;;;;;;;;;4993701;28;20373;-71
2022/01/13 11:34:39;;;;;;;13.80;5.03;;;;;;;;;;5000458;28;20475;-72
2022/01/13 11:37:06;;;;;;;13.13;5.70;;;;;;;;;;5001916;28;20026;-72
2022/01/13 11:39:40;;;;;;;19.27;8.88;;;;;;;;;;4994586;28;20081;-71
2022/01/13 11:42:08;;;;;;;11.93;6.65;;;;;;;;;;4997347;28;20537;-71
2022/01/13 11:44:35;;;;;;;13.75;7.00;;;;;;;;;;4989775;28;20014;-74
2022/01/13 11:47:08;;;;;;;15.60;7.57;;;;;;;;;;5002100;28;20049;-72
2022/01/13 11:52:15;;;;;;;;;;;;;;;;;;4985675;28;20496;-73
2022/01/13 11:54:42;;;;;;;9.13;4.72;;;;;;;;;;4998517;28;19909;-73
2022/01/13 11:57:22;;;;;;;9.45;4.40;;;;;;;;;;4999955;28;20025;-74
2022/01/13 12:00:00;;;;;;;8.55;4.53;;;;;;;;;;4994893;28;20035;-72
2022/01/13 12:02:26;;;;;;;7.50;3.85;;;;;;;;;;4994961;28;20279;-73
2022/01/13 12:05:03;;;;;;;4.80;3.38;;;;;;;;;;5002269;28;20122;-72
2022/01/13 12:07:39;;;;;;;6.78;3.80;;;;;;;;;;4999145;28;20034;-71
2022/01/13 12:10:07;;;;;;;5.70;4.18;;;;;;;;;;4993618;28;20084;-77
2022/01/13 12:12:34;;;;;;;8.95;4.00;;;;;;;;;;4982396;28;20030;-71
2022/01/13 12:15:19;;;;;;;10.65;4.40;;;;;;;;;;4986585;28;20080;-72
2022/01/13 12:17:48;;;;;;;6.65;4.18;;;;;;;;;;5004121;28;20026;-72
2022/01/13 12:23:39;;;;;;;7.47;3.97;;;;;;;;;;4985218;28;20046;-75
2022/01/13 12:26:26;;;;;;;7.88;4.28;;;;;;;;;;4979798;28;20113;-72
2022/01/13 12:29:11;;;;;;;7.97;3.90;;;;;;;;;;4991998;28;20042;-73
2022/01/13 12:31:49;;;;;;;7.72;4.03;;;;;;;;;;4995258;28;20026;-73
2022/01/13 12:34:44;;;;;;;10.15;4.40;;;;;;;;;;4994994;28;20096;-72
2022/01/13 12:37:14;;;;;;;6.55;3.78;;;;;;;;;;4988728;28;20042;-72
2022/01/13 12:39:44;;;;;;;7.30;3.92;;;;;;;;;;4984070;28;20034;-74
2022/01/13 12:42:19;;;;;;;9.05;4.60;;;;;;;;;;4996257;28;20038;-72
2022/01/13 12:47:30;;;;;;;13.45;3.97;;;;;;;;;;5002726;28;20477;-72
2022/01/13 12:49:56;;;;;;;9.68;3.78;;;;;;;;;;5001457;28;20083;-74
2022/01/13 12:52:24;;;;;;;12.05;3.97;;;;;;;;;;5003474;28;20105;-77
2022/01/13 12:54:51;;;;;;;7.30;4.18;;;;;;;;;;5003144;28;20030;-72
2022/01/13 12:57:17;;;;;;;9.27;4.43;;;;;;;;;;5003198;28;20040;-73
2022/01/13 12:59:44;;;;;;;6.13;3.67;;;;;;;;;;5003117;28;20108;-72
2022/01/13 13:02:10;;;;;;;8.85;3.83;;;;;;;;;;4980191;28;20073;-72
2022/01/13 13:04:37;;;;;;;10.57;4.25;;;;;;;;;;4983215;28;20062;-73
2022/01/13 13:07:03;;;;;;;11.75;3.92;;;;;;;;;;4982933;28;20026;-72
2022/01/13 13:09:31;;;;;;;10.70;4.20;;;;;;;;;;4982799;28;20026;-72
2022/01/13 13:12:02;;;;;;;8.93;4.32;;;;;;;;;;4981494;28;20022;-72
2022/01/13 13:17:40;;;;;;;9.00;3.75;;;;;;;;;;4951870;28;20072;-72
2022/01/13 13:20:09;;;;;;;10.88;4.35;;;;;;;;;;4982886;28;20026;-77
2022/01/13 13:22:49;;;;;;;9.45;4.35;;;;;;;;;;4982879;28;20112;-71
2022/01/13 13:25:30;;;;;;;8.40;4.28;;;;;;;;;;4981354;28;20026;-72
2022/01/13 13:27:57;;;;;;;11.00;4.20;;;;;;;;;;4982524;28;20030;-72
2022/01/13 13:30:23;;;;;;;9.13;3.83;;;;;;;;;;4982820;28;20468;-72
2022/01/13 13:32:50;;;;;;;7.63;3.55;;;;;;;;;;4982959;28;20077;-71
2022/01/13 13:35:17;;;;;;;7.40;4.38;;;;;;;;;;4982625;28;20023;-72
2022/01/13 13:37:47;;;;;;;8.90;4.55;;;;;;;;;;4981190;28;20121;-71
2022/01/13 13:40:22;;;;;;;11.50;5.50;;;;;;;;;;4982379;28;20026;-71
2022/01/13 13:43:06;;;;;;;6.15;4.10;;;;;;;;;;4982974;28;20042;-72
2022/01/13 13:45:33;;;;;;;7.47;3.70;;;;;;;;;;4982568;28;20061;-76
2022/01/13 13:48:00;;;;;;;9.68;3.75;;;;;;;;;;4982227;28;20508;-73
2022/01/13 13:50:27;;;;;;;10.25;4.57;;;;;;;;;;4987161;28;20857;-72
2022/01/13 13:53:06;;;;;;;6.20;3.78;;;;;;;;;;4987478;28;20046;-73
2022/01/13 13:55:33;;;;;;;9.27;3.65;;;;;;;;;;4986348;28;20037;-72
2022/01/13 13:57:59;;;;;;;9.93;4.35;;;;;;;;;;4989355;28;20022;-72
2022/01/13 14:00:26;;;;;;;9.48;4.85;;;;;;;;;;4986768;28;20106;-72
2022/01/13 14:02:54;;;;;;;10.80;3.92;;;;;;;;;;4986029;28;20030;-72
2022/01/13 14:05:24;;;;;;;9.98;4.72;;;;;;;;;;4986837;28;20356;-72
2022/01/13 14:07:50;;;;;;;8.07;4.28;;;;;;;;;;4985039;28;20113;-71
2022/01/13 14:10:18;;;;;;;8.02;3.70;;;;;;;;;;4985919;28;20050;-71
2022/01/13 14:12:45;;;;;;;13.30;4.97;;;;;;;;;;4986215;28;20483;-72
2022/01/13 14:15:12;;;;;;;7.85;5.07;;;;;;;;;;4985985;28;20026;-72
2022/01/13 14:17:38;;;;;;;8.40;4.28;;;;;;;;;;4986307;28;20069;-72
2022/01/13 14:20:08;;;;;;;7.22;4.07;;;;;;;;;;4984619;28;20027;-73
2022/01/13 14:22:34;;;;;;;15.80;4.85;;;;;;;;;;4985849;28;20034;-72
2022/01/13 14:25:01;;;;;;;6.43;3.97;;;;;;;;;;4986228;28;20022;-75
2022/01/13 14:27:27;;;;;;;11.63;3.95;;;;;;;;;;4985999;28;20053;-75
2022/01/13 14:29:54;;;;;;;9.43;4.70;;;;;;;;;;4983189;28;20030;-71
2022/01/13 14:32:25;;;;;;;9.45;4.20;;;;;;;;;;4988208;28;20053;-75
2022/01/13 14:34:53;;;;;;;10.05;4.30;;;;;;;;;;5004123;28;20041;-72
2022/01/13 14:37:20;;;;;;;15.10;4.60;;;;;;;;;;5005543;28;20390;-72
2022/01/13 14:40:04;;;;;;;8.18;4.20;;;;;;;;;;5003771;28;20032;-71
2022/01/13 14:42:31;;;;;;;7.90;4.40;;;;;;;;;;5004946;28;20593;-72
2022/01/13 14:45:16;;;;;;;7.68;4.13;;;;;;;;;;5004907;28;20033;-73
2022/01/13 14:47:43;;;;;;;11.00;4.75;;;;;;;;;;5004990;28;20686;-72
2022/01/13 14:50:09;;;;;;;10.52;4.28;;;;;;;;;;4993740;28;20040;-70
2022/01/13 14:52:35;;;;;;;6.40;4.85;;;;;;;;;;4996248;28;20033;-71
2022/01/13 14:55:01;;;;;;;12.00;4.85;;;;;;;;;;5004745;28;20036;-71
2022/01/13 14:57:28;;;;;;;6.95;4.55;;;;;;;;;;5005171;28;20037;-72
2022/01/13 14:59:54;;;;;;;7.60;4.13;;;;;;;;;;5004718;28;20034;-73
2022/01/13 15:02:20;;;;;;;7.40;4.63;;;;;;;;;;4994936;28;20042;-76
2022/01/13 15:04:46;;;;;;;9.07;4.88;;;;;;;;;;4996006;28;20092;-73
2022/01/13 15:07:12;;;;;;;11.10;4.60;;;;;;;;;;4985300;28;20026;-72
2022/01/13 15:09:39;;;;;;;10.10;4.50;;;;;;;;;;4995912;28;20029;-73
2022/01/13 15:12:05;;;;;;;12.13;5.13;;;;;;;;;;5004991;28;20030;-73
2022/01/13 15:14:31;;;;;;;14.65;5.43;;;;;;;;;;5001664;28;20030;-75
2022/01/13 15:16:57;;;;;;;20.02;5.10;;;;;;;;;;4988209;28;20031;-73
2022/01/13 15:19:26;;;;;;;10.50;4.97;;;;;;;;;;4996702;28;20383;-74
2022/01/13 15:21:52;;;;;;;9.55;4.40;;;;;;;;;;5000177;28;20081;-72
2022/01/13 15:24:19;;;;;;;7.03;4.00;;;;;;;;;;4991444;28;20072;-73
2022/01/13 15:26:47;;;;;;;5.68;3.67;;;;;;;;;;4995497;28;20132;-72
2022/01/13 15:29:13;;;;;;;9.45;4.32;;;;;;;;;;4987863;28;20031;-76